sensor_id;sensor_type;location;lat;lon;timestamp;pressure;altitude;pressure_sealevel;temperature;humidity
62164;BME280;48149;51.132;7.178;2023-04-22T00:00:23;97949.38;;;22.02;45.03
62164;BME280;48149;51.132;7.178;2023-04-22T00:02:48;97949.81;;;21.82;46.10
62164;BME280;48149;51.132;7.178;2023-04-22T00:05:13;97944.53;;;22.88;43.15
62164;BME280;48149;51.132;7.178;2023-04-22T00:07:39;97942.25;;;23.12;43.33
62164;BME280;48149;51.132;7.178;2023-04-22T00:10:07;97939.34;;;22.83;43.76
62164;BME280;48149;51.132;7.178;2023-04-22T00:12:32;97939.16;;;22.49;44.52
62164;BME280;48149;51.132;7.178;2023-04-22T00:14:58;97937.47;;;23.40;42.34
62164;BME280;48149;51.132;7.178;2023-04-22T00:17:24;97938.00;;;23.03;43.13
62164;BME280;48149;51.132;7.178;2023-04-22T00:19:49;97935.69;;;22.17;44.33
62164;BME280;48149;51.132;7.178;2023-04-22T00:22:14;97935.31;;;22.10;44.45
62164;BME280;48149;51.132;7.178;2023-04-22T00:24:39;97930.25;;;22.84;44.22
62164;BME280;48149;51.132;7.178;2023-04-22T00:27:04;97931.97;;;22.27;45.18
62164;BME280;48149;51.132;7.178;2023-04-22T00:29:30;97930.06;;;23.46;42.13
62164;BME280;48149;51.132;7.178;2023-04-22T00:31:55;97930.94;;;22.67;43.72
62164;BME280;48149;51.132;7.178;2023-04-22T00:34:20;97930.84;;;22.50;44.57
62164;BME280;48149;51.132;7.178;2023-04-22T00:36:45;97931.50;;;23.43;42.50
62164;BME280;48149;51.132;7.178;2023-04-22T00:39:11;97930.34;;;22.79;42.69
62164;BME280;48149;51.132;7.178;2023-04-22T00:41:37;97929.44;;;22.75;42.20
62164;BME280;48149;51.132;7.178;2023-04-22T00:44:03;97930.97;;;22.45;44.57
62164;BME280;48149;51.132;7.178;2023-04-22T00:46:28;97936.97;;;22.51;43.83
62164;BME280;48149;51.132;7.178;2023-04-22T00:48:54;97928.00;;;22.69;43.99
62164;BME280;48149;51.132;7.178;2023-04-22T00:51:20;97932.94;;;22.31;43.00
62164;BME280;48149;51.132;7.178;2023-04-22T00:53:45;97927.28;;;23.85;42.57
62164;BME280;48149;51.132;7.178;2023-04-22T00:56:11;97930.91;;;22.98;42.92
62164;BME280;48149;51.132;7.178;2023-04-22T00:58:36;97929.19;;;22.10;44.49
62164;BME280;48149;51.132;7.178;2023-04-22T01:01:02;97930.34;;;23.35;42.71
62164;BME280;48149;51.132;7.178;2023-04-22T01:03:27;97925.78;;;22.71;42.36
62164;BME280;48149;51.132;7.178;2023-04-22T01:05:54;97932.59;;;23.42;41.92
62164;BME280;48149;51.132;7.178;2023-04-22T01:08:20;97926.66;;;22.58;42.51
62164;BME280;48149;51.132;7.178;2023-04-22T01:10:45;97936.91;;;23.04;42.83
62164;BME280;48149;51.132;7.178;2023-04-22T01:13:10;97937.53;;;23.09;42.36
62164;BME280;48149;51.132;7.178;2023-04-22T01:15:36;97939.63;;;21.98;42.95
62164;BME280;48149;51.132;7.178;2023-04-22T01:18:01;97928.38;;;22.93;42.40
62164;BME280;48149;51.132;7.178;2023-04-22T01:20:27;97924.78;;;22.98;43.09
62164;BME280;48149;51.132;7.178;2023-04-22T01:25:28;97936.91;;;23.12;42.27
62164;BME280;48149;51.132;7.178;2023-04-22T01:27:53;97935.59;;;23.75;41.19
62164;BME280;48149;51.132;7.178;2023-04-22T01:30:19;97931.19;;;23.45;41.35
62164;BME280;48149;51.132;7.178;2023-04-22T01:32:44;97941.34;;;23.25;41.90
62164;BME280;48149;51.132;7.178;2023-04-22T01:35:10;97939.84;;;23.42;41.16
62164;BME280;48149;51.132;7.178;2023-04-22T01:37:35;97939.94;;;23.36;41.93
62164;BME280;48149;51.132;7.178;2023-04-22T01:40:01;97942.22;;;23.95;41.01
62164;BME280;48149;51.132;7.178;2023-04-22T01:42:26;97943.94;;;23.65;40.22
62164;BME280;48149;51.132;7.178;2023-04-22T01:44:52;97939.53;;;23.69;40.79
62164;BME280;48149;51.132;7.178;2023-04-22T01:47:17;97944.00;;;22.69;41.51
62164;BME280;48149;51.132;7.178;2023-04-22T01:49:42;97942.97;;;22.87;43.15
62164;BME280;48149;51.132;7.178;2023-04-22T01:52:07;97941.09;;;22.96;42.52
62164;BME280;48149;51.132;7.178;2023-04-22T01:54:33;97945.31;;;23.45;41.69
62164;BME280;48149;51.132;7.178;2023-04-22T01:56:58;97943.03;;;23.13;41.72
62164;BME280;48149;51.132;7.178;2023-04-22T01:59:24;97938.94;;;23.07;40.98
62164;BME280;48149;51.132;7.178;2023-04-22T02:01:50;97940.75;;;22.80;42.70
62164;BME280;48149;51.132;7.178;2023-04-22T02:04:15;97935.66;;;23.18;42.30
62164;BME280;48149;51.132;7.178;2023-04-22T02:06:40;97941.25;;;23.48;41.20
62164;BME280;48149;51.132;7.178;2023-04-22T02:09:05;97936.00;;;23.34;41.67
62164;BME280;48149;51.132;7.178;2023-04-22T02:11:31;97934.63;;;24.22;39.49
62164;BME280;48149;51.132;7.178;2023-04-22T02:13:56;97935.41;;;22.80;41.08
62164;BME280;48149;51.132;7.178;2023-04-22T02:16:21;97938.63;;;23.08;42.37
62164;BME280;48149;51.132;7.178;2023-04-22T02:18:46;97929.97;;;22.94;41.70
62164;BME280;48149;51.132;7.178;2023-04-22T02:21:12;97933.41;;;22.64;43.09
62164;BME280;48149;51.132;7.178;2023-04-22T02:23:37;97926.81;;;22.92;43.03
62164;BME280;48149;51.132;7.178;2023-04-22T02:26:06;97924.75;;;23.46;41.47
62164;BME280;48149;51.132;7.178;2023-04-22T02:28:32;97923.66;;;22.90;41.95
62164;BME280;48149;51.132;7.178;2023-04-22T02:31:00;97926.25;;;23.29;41.43
62164;BME280;48149;51.132;7.178;2023-04-22T02:33:26;97918.56;;;23.36;41.56
62164;BME280;48149;51.132;7.178;2023-04-22T02:35:51;97925.56;;;22.98;42.27
62164;BME280;48149;51.132;7.178;2023-04-22T02:38:17;97917.00;;;23.27;42.26
62164;BME280;48149;51.132;7.178;2023-04-22T02:40:44;97915.28;;;22.74;42.84
62164;BME280;48149;51.132;7.178;2023-04-22T02:43:09;97915.31;;;23.40;42.69
62164;BME280;48149;51.132;7.178;2023-04-22T02:45:34;97900.91;;;23.01;41.14
62164;BME280;48149;51.132;7.178;2023-04-22T02:48:00;97906.50;;;23.65;41.61
62164;BME280;48149;51.132;7.178;2023-04-22T02:50:25;97906.34;;;22.79;42.68
62164;BME280;48149;51.132;7.178;2023-04-22T02:52:50;97908.97;;;22.31;42.40
62164;BME280;48149;51.132;7.178;2023-04-22T02:55:34;97915.94;;;23.71;40.54
62164;BME280;48149;51.132;7.178;2023-04-22T02:57:59;97921.22;;;23.19;41.93
62164;BME280;48149;51.132;7.178;2023-04-22T03:00:24;97920.69;;;22.61;42.27
62164;BME280;48149;51.132;7.178;2023-04-22T03:14:24;97894.91;;;22.17;44.05
62164;BME280;48149;51.132;7.178;2023-04-22T03:16:49;97889.38;;;23.66;40.26
62164;BME280;48149;51.132;7.178;2023-04-22T03:19:15;97886.31;;;23.07;42.85
62164;BME280;48149;51.132;7.178;2023-04-22T03:21:40;97884.16;;;23.26;43.66
62164;BME280;48149;51.132;7.178;2023-04-22T03:24:05;97885.16;;;22.82;42.40
62164;BME280;48149;51.132;7.178;2023-04-22T03:26:31;97886.06;;;23.34;40.92
62164;BME280;48149;51.132;7.178;2023-04-22T03:28:56;97876.31;;;22.65;43.07
62164;BME280;48149;51.132;7.178;2023-04-22T03:31:21;97882.44;;;23.22;42.21
62164;BME280;48149;51.132;7.178;2023-04-22T03:33:48;97878.72;;;22.75;41.36
62164;BME280;48149;51.132;7.178;2023-04-22T03:36:13;97868.25;;;23.04;42.25
62164;BME280;48149;51.132;7.178;2023-04-22T03:38:38;97871.13;;;23.76;41.97
62164;BME280;48149;51.132;7.178;2023-04-22T03:41:04;97872.22;;;23.32;42.48
62164;BME280;48149;51.132;7.178;2023-04-22T03:43:31;97873.09;;;22.46;43.35
62164;BME280;48149;51.132;7.178;2023-04-22T03:45:56;97880.59;;;23.57;42.42
62164;BME280;48149;51.132;7.178;2023-04-22T03:48:21;97871.75;;;23.30;42.11
62164;BME280;48149;51.132;7.178;2023-04-22T03:50:47;97872.97;;;23.07;42.19
62164;BME280;48149;51.132;7.178;2023-04-22T03:53:12;97876.81;;;23.58;41.84
62164;BME280;48149;51.132;7.178;2023-04-22T03:55:37;97871.59;;;23.18;42.25
62164;BME280;48149;51.132;7.178;2023-04-22T03:58:02;97867.16;;;22.97;41.65
62164;BME280;48149;51.132;7.178;2023-04-22T04:00:28;97869.78;;;22.79;42.99
62164;BME280;48149;51.132;7.178;2023-04-22T04:05:29;97869.91;;;23.57;40.78
62164;BME280;48149;51.132;7.178;2023-04-22T04:07:57;97858.41;;;23.30;40.52
62164;BME280;48149;51.132;7.178;2023-04-22T04:10:23;97866.53;;;24.58;39.82
62164;BME280;48149;51.132;7.178;2023-04-22T04:15:27;97867.19;;;23.91;40.34
62164;BME280;48149;51.132;7.178;2023-04-22T04:17:53;97857.94;;;23.28;41.34
62164;BME280;48149;51.132;7.178;2023-04-22T04:20:21;97853.38;;;23.55;41.35
62164;BME280;48149;51.132;7.178;2023-04-22T04:22:46;97850.53;;;23.77;41.02
62164;BME280;48149;51.132;7.178;2023-04-22T04:25:11;97854.03;;;23.60;40.77
62164;BME280;48149;51.132;7.178;2023-04-22T04:27:36;97853.38;;;23.80;41.32
62164;BME280;48149;51.132;7.178;2023-04-22T04:30:05;97849.13;;;23.28;41.73
62164;BME280;48149;51.132;7.178;2023-04-22T04:32:31;97849.41;;;23.86;40.75
62164;BME280;48149;51.132;7.178;2023-04-22T04:34:59;97837.47;;;22.90;42.38
62164;BME280;48149;51.132;7.178;2023-04-22T04:37:26;97846.72;;;22.92;42.12
62164;BME280;48149;51.132;7.178;2023-04-22T04:39:52;97843.41;;;24.07;41.00
62164;BME280;48149;51.132;7.178;2023-04-22T04:42:18;97848.00;;;23.12;40.98
62164;BME280;48149;51.132;7.178;2023-04-22T04:44:44;97844.69;;;24.01;41.29
62164;BME280;48149;51.132;7.178;2023-04-22T04:47:13;97832.31;;;23.27;40.74
62164;BME280;48149;51.132;7.178;2023-04-22T04:49:42;97836.81;;;24.04;39.28
62164;BME280;48149;51.132;7.178;2023-04-22T04:52:07;97829.00;;;23.82;40.08
62164;BME280;48149;51.132;7.178;2023-04-22T04:54:35;97836.13;;;23.44;40.37
62164;BME280;48149;51.132;7.178;2023-04-22T04:57:01;97844.88;;;23.78;40.90
62164;BME280;48149;51.132;7.178;2023-04-22T04:59:27;97830.25;;;23.33;39.49
62164;BME280;48149;51.132;7.178;2023-04-22T05:01:53;97835.94;;;23.66;40.26
62164;BME280;48149;51.132;7.178;2023-04-22T05:04:18;97834.78;;;22.42;42.37
62164;BME280;48149;51.132;7.178;2023-04-22T05:06:43;97843.69;;;24.22;40.14
62164;BME280;48149;51.132;7.178;2023-04-22T05:09:09;97845.38;;;23.37;41.44
62164;BME280;48149;51.132;7.178;2023-04-22T05:11:34;97840.84;;;23.47;41.41
62164;BME280;48149;51.132;7.178;2023-04-22T05:13:59;97841.22;;;24.55;40.07
62164;BME280;48149;51.132;7.178;2023-04-22T05:16:25;97840.41;;;24.08;40.90
62164;BME280;48149;51.132;7.178;2023-04-22T05:18:50;97840.81;;;23.55;40.56
62164;BME280;48149;51.132;7.178;2023-04-22T05:21:15;97838.69;;;24.12;39.42
62164;BME280;48149;51.132;7.178;2023-04-22T05:23:42;97817.97;;;22.72;41.36
62164;BME280;48149;51.132;7.178;2023-04-22T05:26:07;97842.84;;;24.77;39.08
62164;BME280;48149;51.132;7.178;2023-04-22T05:28:32;97838.75;;;23.26;41.93
62164;BME280;48149;51.132;7.178;2023-04-22T05:30:57;97833.38;;;22.75;44.31
62164;BME280;48149;51.132;7.178;2023-04-22T05:33:23;97847.31;;;24.56;39.31
62164;BME280;48149;51.132;7.178;2023-04-22T05:35:48;97851.22;;;24.67;37.75
62164;BME280;48149;51.132;7.178;2023-04-22T05:38:16;97842.00;;;24.01;40.87
62164;BME280;48149;51.132;7.178;2023-04-22T05:40:41;97853.63;;;24.60;39.50
62164;BME280;48149;51.132;7.178;2023-04-22T05:43:07;97855.47;;;24.97;38.26
62164;BME280;48149;51.132;7.178;2023-04-22T05:45:32;97857.31;;;24.76;39.34
62164;BME280;48149;51.132;7.178;2023-04-22T05:47:58;97856.31;;;24.13;39.09
62164;BME280;48149;51.132;7.178;2023-04-22T05:50:23;97853.56;;;24.39;39.73
62164;BME280;48149;51.132;7.178;2023-04-22T05:52:48;97839.50;;;24.80;39.03
62164;BME280;48149;51.132;7.178;2023-04-22T05:55:13;97854.34;;;24.31;39.47
62164;BME280;48149;51.132;7.178;2023-04-22T05:57:39;97846.81;;;24.71;38.89
62164;BME280;48149;51.132;7.178;2023-04-22T06:00:04;97857.78;;;24.49;40.29
62164;BME280;48149;51.132;7.178;2023-04-22T06:02:29;97858.31;;;24.63;39.24
62164;BME280;48149;51.132;7.178;2023-04-22T06:04:55;97850.94;;;24.22;40.70
62164;BME280;48149;51.132;7.178;2023-04-22T06:07:21;97860.84;;;24.97;39.56
62164;BME280;48149;51.132;7.178;2023-04-22T06:09:47;97858.56;;;24.78;37.70
62164;BME280;48149;51.132;7.178;2023-04-22T06:12:12;97854.72;;;25.17;38.73
62164;BME280;48149;51.132;7.178;2023-04-22T06:14:37;97864.31;;;25.18;38.54
62164;BME280;48149;51.132;7.178;2023-04-22T06:17:02;97850.34;;;25.75;37.85
62164;BME280;48149;51.132;7.178;2023-04-22T06:19:28;97864.59;;;25.67;37.77
62164;BME280;48149;51.132;7.178;2023-04-22T06:21:53;97858.53;;;24.87;38.49
62164;BME280;48149;51.132;7.178;2023-04-22T06:24:18;97858.03;;;24.18;38.71
62164;BME280;48149;51.132;7.178;2023-04-22T06:26:45;97841.53;;;24.54;38.51
62164;BME280;48149;51.132;7.178;2023-04-22T06:29:10;97852.41;;;25.69;36.69
62164;BME280;48149;51.132;7.178;2023-04-22T06:31:35;97851.38;;;26.27;36.41
62164;BME280;48149;51.132;7.178;2023-04-22T06:34:00;97854.53;;;25.43;37.23
62164;BME280;48149;51.132;7.178;2023-04-22T06:36:26;97856.84;;;25.03;36.76
62164;BME280;48149;51.132;7.178;2023-04-22T06:38:54;97849.81;;;25.19;38.26
62164;BME280;48149;51.132;7.178;2023-04-22T06:41:20;97850.84;;;26.34;36.54
62164;BME280;48149;51.132;7.178;2023-04-22T06:43:47;97844.38;;;25.28;36.49
62164;BME280;48149;51.132;7.178;2023-04-22T06:46:16;97850.97;;;26.49;36.01
62164;BME280;48149;51.132;7.178;2023-04-22T06:48:42;97849.03;;;25.39;36.49
62164;BME280;48149;51.132;7.178;2023-04-22T06:51:07;97852.72;;;26.45;35.41
62164;BME280;48149;51.132;7.178;2023-04-22T06:53:32;97850.34;;;25.13;37.91
62164;BME280;48149;51.132;7.178;2023-04-22T06:55:58;97853.81;;;25.55;36.02
62164;BME280;48149;51.132;7.178;2023-04-22T06:58:23;97852.91;;;25.51;36.06
62164;BME280;48149;51.132;7.178;2023-04-22T07:00:48;97854.44;;;26.38;36.05
62164;BME280;48149;51.132;7.178;2023-04-22T07:03:13;97848.63;;;25.29;36.91
62164;BME280;48149;51.132;7.178;2023-04-22T07:05:39;97844.81;;;26.04;36.97
62164;BME280;48149;51.132;7.178;2023-04-22T07:08:04;97845.50;;;25.47;37.00
62164;BME280;48149;51.132;7.178;2023-04-22T07:10:29;97838.44;;;26.90;34.77
62164;BME280;48149;51.132;7.178;2023-04-22T07:15:26;97849.38;;;26.48;35.66
62164;BME280;48149;51.132;7.178;2023-04-22T07:17:52;97832.94;;;26.62;35.11
62164;BME280;48149;51.132;7.178;2023-04-22T07:20:17;97849.50;;;27.96;35.16
62164;BME280;48149;51.132;7.178;2023-04-22T07:22:42;97839.63;;;27.57;34.77
62164;BME280;48149;51.132;7.178;2023-04-22T07:25:08;97823.56;;;27.44;33.91
62164;BME280;48149;51.132;7.178;2023-04-22T07:27:33;97838.38;;;27.14;33.94
62164;BME280;48149;51.132;7.178;2023-04-22T07:30:00;97836.50;;;27.82;35.27
62164;BME280;48149;51.132;7.178;2023-04-22T07:32:26;97832.91;;;28.22;33.40
62164;BME280;48149;51.132;7.178;2023-04-22T07:34:51;97831.34;;;29.37;33.06
62164;BME280;48149;51.132;7.178;2023-04-22T07:37:16;97826.78;;;27.38;33.00
62164;BME280;48149;51.132;7.178;2023-04-22T07:39:41;97828.31;;;27.79;32.97
62164;BME280;48149;51.132;7.178;2023-04-22T07:42:07;97827.56;;;27.50;33.50
62164;BME280;48149;51.132;7.178;2023-04-22T07:44:32;97827.19;;;28.08;32.71
62164;BME280;48149;51.132;7.178;2023-04-22T07:46:57;97817.88;;;28.68;32.37
62164;BME280;48149;51.132;7.178;2023-04-22T07:49:23;97814.25;;;29.30;32.40
62164;BME280;48149;51.132;7.178;2023-04-22T07:51:49;97821.97;;;28.62;32.61
62164;BME280;48149;51.132;7.178;2023-04-22T07:54:15;97830.91;;;28.66;32.99
62164;BME280;48149;51.132;7.178;2023-04-22T07:56:40;97817.53;;;29.23;32.82
62164;BME280;48149;51.132;7.178;2023-04-22T07:59:05;97819.47;;;29.61;30.91
62164;BME280;48149;51.132;7.178;2023-04-22T08:01:31;97812.97;;;28.89;31.65
62164;BME280;48149;51.132;7.178;2023-04-22T08:03:56;97811.38;;;29.23;32.04
62164;BME280;48149;51.132;7.178;2023-04-22T08:06:21;97807.28;;;28.12;32.14
62164;BME280;48149;51.132;7.178;2023-04-22T08:08:47;97810.78;;;28.94;32.24
62164;BME280;48149;51.132;7.178;2023-04-22T08:11:12;97811.19;;;28.15;32.29
62164;BME280;48149;51.132;7.178;2023-04-22T08:13:37;97806.19;;;29.91;32.34
62164;BME280;48149;51.132;7.178;2023-04-22T08:16:03;97798.72;;;30.30;30.97
62164;BME280;48149;51.132;7.178;2023-04-22T08:18:28;97794.34;;;28.49;31.97
62164;BME280;48149;51.132;7.178;2023-04-22T08:20:54;97807.00;;;29.72;32.87
62164;BME280;48149;51.132;7.178;2023-04-22T08:23:19;97800.41;;;29.31;32.48
62164;BME280;48149;51.132;7.178;2023-04-22T08:25:45;97794.44;;;29.41;32.33
62164;BME280;48149;51.132;7.178;2023-04-22T08:28:10;97798.88;;;30.14;30.85
62164;BME280;48149;51.132;7.178;2023-04-22T08:30:36;97798.00;;;30.82;29.91
62164;BME280;48149;51.132;7.178;2023-04-22T08:35:29;97795.38;;;30.59;30.18
62164;BME280;48149;51.132;7.178;2023-04-22T08:37:54;97793.03;;;29.28;31.61
62164;BME280;48149;51.132;7.178;2023-04-22T08:40:20;97792.66;;;29.68;31.05
62164;BME280;48149;51.132;7.178;2023-04-22T08:42:45;97780.16;;;30.25;29.83
62164;BME280;48149;51.132;7.178;2023-04-22T08:45:10;97776.88;;;29.70;31.62
62164;BME280;48149;51.132;7.178;2023-04-22T08:47:38;97771.56;;;29.54;31.01
62164;BME280;48149;51.132;7.178;2023-04-22T08:50:04;97764.25;;;29.17;31.87
62164;BME280;48149;51.132;7.178;2023-04-22T08:52:30;97774.94;;;28.75;31.69
62164;BME280;48149;51.132;7.178;2023-04-22T08:54:56;97773.13;;;29.17;32.04
62164;BME280;48149;51.132;7.178;2023-04-22T08:57:21;97768.56;;;30.01;30.14
62164;BME280;48149;51.132;7.178;2023-04-22T08:59:47;97756.88;;;29.13;30.77
62164;BME280;48149;51.132;7.178;2023-04-22T09:02:22;97770.44;;;27.85;30.64
62164;BME280;48149;51.132;7.178;2023-04-22T09:04:48;97773.63;;;29.03;31.09
62164;BME280;48149;51.132;7.178;2023-04-22T09:07:15;97758.59;;;28.33;30.79
62164;BME280;48149;51.132;7.178;2023-04-22T09:09:44;97762.56;;;29.08;30.97
62164;BME280;48149;51.132;7.178;2023-04-22T09:12:10;97757.31;;;29.54;30.18
62164;BME280;48149;51.132;7.178;2023-04-22T09:14:35;97752.19;;;30.62;28.95
62164;BME280;48149;51.132;7.178;2023-04-22T09:17:01;97758.25;;;30.07;29.04
62164;BME280;48149;51.132;7.178;2023-04-22T09:19:27;97764.69;;;31.00;28.59
62164;BME280;48149;51.132;7.178;2023-04-22T09:21:52;97751.28;;;31.11;28.48
62164;BME280;48149;51.132;7.178;2023-04-22T09:24:18;97756.97;;;31.32;29.34
62164;BME280;48149;51.132;7.178;2023-04-22T09:26:44;97753.09;;;31.66;28.53
62164;BME280;48149;51.132;7.178;2023-04-22T09:29:13;97750.41;;;27.98;30.69
62164;BME280;48149;51.132;7.178;2023-04-22T09:31:39;97729.34;;;30.56;28.74
62164;BME280;48149;51.132;7.178;2023-04-22T09:34:05;97749.19;;;32.55;26.82
62164;BME280;48149;51.132;7.178;2023-04-22T09:36:31;97750.91;;;32.88;26.38
62164;BME280;48149;51.132;7.178;2023-04-22T09:39:02;97740.38;;;34.54;24.12
62164;BME280;48149;51.132;7.178;2023-04-22T09:41:29;97749.16;;;35.08;24.96
62164;BME280;48149;51.132;7.178;2023-04-22T09:43:55;97739.56;;;31.66;25.97
62164;BME280;48149;51.132;7.178;2023-04-22T09:46:22;97753.19;;;34.57;23.87
62164;BME280;48149;51.132;7.178;2023-04-22T09:48:48;97755.19;;;32.86;23.99
62164;BME280;48149;51.132;7.178;2023-04-22T09:51:14;97746.94;;;32.64;24.77
62164;BME280;48149;51.132;7.178;2023-04-22T09:53:40;97750.50;;;30.81;25.49
62164;BME280;48149;51.132;7.178;2023-04-22T09:56:06;97741.47;;;33.44;24.19
62164;BME280;48149;51.132;7.178;2023-04-22T09:58:31;97747.69;;;36.24;22.56
62164;BME280;48149;51.132;7.178;2023-04-22T10:00:57;97747.09;;;36.06;23.03
62164;BME280;48149;51.132;7.178;2023-04-22T10:03:23;97742.81;;;35.98;22.76
62164;BME280;48149;51.132;7.178;2023-04-22T10:05:48;97733.84;;;35.42;22.03
62164;BME280;48149;51.132;7.178;2023-04-22T10:08:14;97743.50;;;35.50;22.41
62164;BME280;48149;51.132;7.178;2023-04-22T10:10:40;97749.13;;;36.35;21.40
62164;BME280;48149;51.132;7.178;2023-04-22T10:13:06;97750.47;;;36.61;21.97
62164;BME280;48149;51.132;7.178;2023-04-22T10:15:33;97748.91;;;37.28;21.86
62164;BME280;48149;51.132;7.178;2023-04-22T10:17:59;97742.81;;;35.98;22.56
62164;BME280;48149;51.132;7.178;2023-04-22T10:20:25;97754.78;;;36.14;22.70
62164;BME280;48149;51.132;7.178;2023-04-22T10:25:27;97736.50;;;34.41;23.80
62164;BME280;48149;51.132;7.178;2023-04-22T10:28:02;97744.13;;;35.79;22.66
62164;BME280;48149;51.132;7.178;2023-04-22T10:30:28;97739.69;;;35.37;22.49
62164;BME280;48149;51.132;7.178;2023-04-22T10:35:27;97742.38;;;32.21;25.33
62164;BME280;48149;51.132;7.178;2023-04-22T10:37:55;97742.03;;;31.82;25.91
62164;BME280;48149;51.132;7.178;2023-04-22T10:40:21;97756.00;;;31.17;27.03
62164;BME280;48149;51.132;7.178;2023-04-22T10:42:49;97761.13;;;32.47;25.65
62164;BME280;48149;51.132;7.178;2023-04-22T10:45:15;97761.06;;;31.52;27.11
62164;BME280;48149;51.132;7.178;2023-04-22T10:47:40;97750.00;;;30.98;27.14
62164;BME280;48149;51.132;7.178;2023-04-22T10:50:13;97764.75;;;34.86;24.02
62164;BME280;48149;51.132;7.178;2023-04-22T10:52:39;97747.13;;;32.38;26.19
62164;BME280;48149;51.132;7.178;2023-04-22T10:55:05;97750.59;;;33.00;25.96
62164;BME280;48149;51.132;7.178;2023-04-22T10:57:40;97748.28;;;31.93;27.31
62164;BME280;48149;51.132;7.178;2023-04-22T11:02:42;97743.66;;;31.94;27.39
62164;BME280;48149;51.132;7.178;2023-04-22T11:05:18;97739.59;;;32.10;27.34
62164;BME280;48149;51.132;7.178;2023-04-22T11:07:43;97742.59;;;33.36;26.03
62164;BME280;48149;51.132;7.178;2023-04-22T11:10:09;97751.63;;;33.86;25.97
62164;BME280;48149;51.132;7.178;2023-04-22T11:15:28;97746.22;;;34.21;25.59
62164;BME280;48149;51.132;7.178;2023-04-22T11:17:53;97759.97;;;33.17;25.36
62164;BME280;48149;51.132;7.178;2023-04-22T11:20:20;97755.06;;;36.68;23.75
62164;BME280;48149;51.132;7.178;2023-04-22T11:22:46;97771.88;;;34.13;25.24
62164;BME280;48149;51.132;7.178;2023-04-22T11:34:43;97752.31;;;36.30;23.42
62164;BME280;48149;51.132;7.178;2023-04-22T11:37:18;97760.16;;;34.65;25.16
62164;BME280;48149;51.132;7.178;2023-04-22T11:39:55;97744.56;;;32.05;26.53
62164;BME280;48149;51.132;7.178;2023-04-22T11:42:36;97760.38;;;35.24;24.50
62164;BME280;48149;51.132;7.178;2023-04-22T11:45:05;97748.75;;;35.20;24.24
62164;BME280;48149;51.132;7.178;2023-04-22T11:47:41;97759.72;;;34.92;24.61
62164;BME280;48149;51.132;7.178;2023-04-22T11:50:20;97759.81;;;34.60;25.00
62164;BME280;48149;51.132;7.178;2023-04-22T11:55:56;97754.22;;;36.74;24.08
62164;BME280;48149;51.132;7.178;2023-04-22T11:58:27;97764.06;;;34.61;24.79
62164;BME280;48149;51.132;7.178;2023-04-22T12:00:56;97758.25;;;34.38;26.16
62164;BME280;48149;51.132;7.178;2023-04-22T12:06:24;97775.75;;;30.39;28.15
62164;BME280;48149;51.132;7.178;2023-04-22T12:08:57;97761.00;;;31.15;28.09
62164;BME280;48149;51.132;7.178;2023-04-22T12:11:32;97759.94;;;31.97;27.48
62164;BME280;48149;51.132;7.178;2023-04-22T12:14:07;97768.59;;;32.10;27.90
62164;BME280;48149;51.132;7.178;2023-04-22T12:16:45;97766.47;;;31.19;28.65
62164;BME280;48149;51.132;7.178;2023-04-22T12:19:23;97768.31;;;34.79;25.18
62164;BME280;48149;51.132;7.178;2023-04-22T12:22:10;97763.59;;;34.98;23.41
62164;BME280;48149;51.132;7.178;2023-04-22T12:24:43;97771.31;;;35.03;24.10
62164;BME280;48149;51.132;7.178;2023-04-22T12:30:02;97778.06;;;34.17;24.62
62164;BME280;48149;51.132;7.178;2023-04-22T12:35:41;97770.16;;;32.65;27.56
62164;BME280;48149;51.132;7.178;2023-04-22T12:38:07;97769.78;;;33.57;25.57
62164;BME280;48149;51.132;7.178;2023-04-22T12:40:33;97771.06;;;34.44;25.62
62164;BME280;48149;51.132;7.178;2023-04-22T12:43:24;97774.78;;;33.44;27.19
62164;BME280;48149;51.132;7.178;2023-04-22T12:45:49;97779.13;;;33.66;26.14
62164;BME280;48149;51.132;7.178;2023-04-22T12:48:20;97773.88;;;35.45;25.10
62164;BME280;48149;51.132;7.178;2023-04-22T12:50:46;97763.88;;;35.21;24.24
62164;BME280;48149;51.132;7.178;2023-04-22T12:53:24;97768.59;;;35.10;24.87
62164;BME280;48149;51.132;7.178;2023-04-22T12:55:53;97765.25;;;34.21;25.54
62164;BME280;48149;51.132;7.178;2023-04-22T12:58:19;97753.09;;;34.93;25.34
62164;BME280;48149;51.132;7.178;2023-04-22T13:00:47;97755.34;;;33.21;26.36
62164;BME280;48149;51.132;7.178;2023-04-22T13:03:22;97758.19;;;32.15;27.59
62164;BME280;48149;51.132;7.178;2023-04-22T13:05:57;97760.97;;;34.09;26.09
62164;BME280;48149;51.132;7.178;2023-04-22T13:08:23;97769.47;;;37.06;23.57
62164;BME280;48149;51.132;7.178;2023-04-22T13:10:56;97760.97;;;35.63;25.00
62164;BME280;48149;51.132;7.178;2023-04-22T13:13:28;97753.50;;;36.26;23.91
62164;BME280;48149;51.132;7.178;2023-04-22T13:15:56;97764.53;;;35.46;24.37
62164;BME280;48149;51.132;7.178;2023-04-22T13:18:22;97750.00;;;34.91;25.69
62164;BME280;48149;51.132;7.178;2023-04-22T13:21:03;97758.84;;;30.95;28.51
62164;BME280;48149;51.132;7.178;2023-04-22T13:23:37;97753.00;;;32.00;28.91
62164;BME280;48149;51.132;7.178;2023-04-22T13:26:04;97759.47;;;31.18;29.32
62164;BME280;48149;51.132;7.178;2023-04-22T13:28:30;97753.69;;;30.11;31.30
62164;BME280;48149;51.132;7.178;2023-04-22T13:31:11;97758.50;;;33.37;28.59
62164;BME280;48149;51.132;7.178;2023-04-22T13:33:43;97751.41;;;31.22;30.29
62164;BME280;48149;51.132;7.178;2023-04-22T13:36:12;97759.09;;;30.90;30.48
62164;BME280;48149;51.132;7.178;2023-04-22T13:38:37;97756.75;;;30.85;30.52
62164;BME280;48149;51.132;7.178;2023-04-22T13:41:03;97774.81;;;29.83;31.00
62164;BME280;48149;51.132;7.178;2023-04-22T13:43:33;97750.91;;;31.46;30.43
62164;BME280;48149;51.132;7.178;2023-04-22T13:46:05;97746.34;;;30.60;31.26
62164;BME280;48149;51.132;7.178;2023-04-22T13:48:36;97749.94;;;31.28;31.09
62164;BME280;48149;51.132;7.178;2023-04-22T13:51:01;97758.66;;;31.14;30.40
62164;BME280;48149;51.132;7.178;2023-04-22T13:53:32;97755.78;;;31.00;30.66